Terminal Aerodrome Forecast
Issued by NWS

Home | Current Version | Previous Version | Text Only | Print | Product List | Glossary On
Versions: 1 2 3 4 5 6 7 8 9 10 11 12 13 14 15 16
000
FTUS43 KMQT 251738
TAFIWD
TAF
KIWD 251738Z 2518/2618 25017G22KT P6SM SCT050
     FM260000 28012G20KT P6SM SCT050
     FM260300 27008KT P6SM SCT040
     FM260800 28006KT P6SM BKN030
     FM261500 32007KT P6SM SCT020
      AMD LTD TO CLD VIS AND WIND=

USA.gov is the U.S. government's official web portal to all federal, state and local government web resources and services.